sensor_id;sensor_type;location;lat;lon;timestamp;P1;durP1;ratioP1;P2;durP2;ratioP2
36411;SDS011;22445;52.100;5.176;2022-08-19T00:02:12;7.65;;;6.95;;
36411;SDS011;22445;52.100;5.176;2022-08-19T00:04:38;8.30;;;7.50;;
36411;SDS011;22445;52.100;5.176;2022-08-19T00:07:06;3.35;;;3.15;;
36411;SDS011;22445;52.100;5.176;2022-08-19T00:12:01;5.97;;;4.72;;
36411;SDS011;22445;52.100;5.176;2022-08-19T00:20:35;4.40;;;4.00;;
36411;SDS011;22445;52.100;5.176;2022-08-19T00:23:12;3.28;;;2.85;;
36411;SDS011;22445;52.100;5.176;2022-08-19T00:38:47;6.25;;;5.38;;
36411;SDS011;22445;52.100;5.176;2022-08-19T00:51:53;6.93;;;5.00;;
36411;SDS011;22445;52.100;5.176;2022-08-19T00:59:47;4.18;;;3.78;;
36411;SDS011;22445;52.100;5.176;2022-08-19T01:04:46;4.95;;;4.53;;
36411;SDS011;22445;52.100;5.176;2022-08-19T01:15:20;2.75;;;2.55;;
36411;SDS011;22445;52.100;5.176;2022-08-19T01:17:48;1.30;;;1.20;;
36411;SDS011;22445;52.100;5.176;2022-08-19T01:20:17;1.40;;;1.30;;
36411;SDS011;22445;52.100;5.176;2022-08-19T01:22:49;1.70;;;1.60;;
36411;SDS011;22445;52.100;5.176;2022-08-19T01:38:36;1.35;;;1.25;;
36411;SDS011;22445;52.100;5.176;2022-08-19T01:41:03;1.58;;;1.48;;
36411;SDS011;22445;52.100;5.176;2022-08-19T02:01:34;3.17;;;2.78;;
36411;SDS011;22445;52.100;5.176;2022-08-19T02:03:59;4.67;;;4.27;;
36411;SDS011;22445;52.100;5.176;2022-08-19T02:09:04;8.55;;;6.28;;
36411;SDS011;22445;52.100;5.176;2022-08-19T02:28:41;2.55;;;2.22;;
36411;SDS011;22445;52.100;5.176;2022-08-19T03:25:28;1.55;;;1.40;;
36411;SDS011;22445;52.100;5.176;2022-08-19T03:27:54;0.73;;;0.60;;
36411;SDS011;22445;52.100;5.176;2022-08-19T03:35:35;142.35;;;7.75;;
36411;SDS011;22445;52.100;5.176;2022-08-19T03:38:05;33.15;;;2.47;;
36411;SDS011;22445;52.100;5.176;2022-08-19T03:43:06;4.80;;;3.45;;
36411;SDS011;22445;52.100;5.176;2022-08-19T03:45:42;8.35;;;4.78;;
36411;SDS011;22445;52.100;5.176;2022-08-19T03:50:43;10.68;;;6.38;;
36411;SDS011;22445;52.100;5.176;2022-08-19T03:55:54;9.85;;;6.88;;
36411;SDS011;22445;52.100;5.176;2022-08-19T03:58:20;10.95;;;7.63;;
36411;SDS011;22445;52.100;5.176;2022-08-19T04:09:14;3.70;;;2.42;;
36411;SDS011;22445;52.100;5.176;2022-08-19T04:23:39;11.38;;;7.00;;
36411;SDS011;22445;52.100;5.176;2022-08-19T04:26:05;7.80;;;5.30;;
36411;SDS011;22445;52.100;5.176;2022-08-19T04:46:56;23.23;;;13.95;;
36411;SDS011;22445;52.100;5.176;2022-08-19T04:49:23;25.70;;;14.38;;
36411;SDS011;22445;52.100;5.176;2022-08-19T04:51:50;22.90;;;14.23;;
36411;SDS011;22445;52.100;5.176;2022-08-19T05:04:39;31.17;;;17.58;;
36411;SDS011;22445;52.100;5.176;2022-08-19T05:28:21;30.52;;;17.65;;
36411;SDS011;22445;52.100;5.176;2022-08-19T05:30:46;33.00;;;17.45;;
36411;SDS011;22445;52.100;5.176;2022-08-19T05:33:13;30.15;;;16.98;;
36411;SDS011;22445;52.100;5.176;2022-08-19T05:35:40;35.30;;;18.88;;
36411;SDS011;22445;52.100;5.176;2022-08-19T05:40:41;38.72;;;20.02;;
36411;SDS011;22445;52.100;5.176;2022-08-19T05:57:09;126.75;;;49.97;;
36411;SDS011;22445;52.100;5.176;2022-08-19T05:59:36;104.90;;;45.00;;
36411;SDS011;22445;52.100;5.176;2022-08-19T06:04:39;140.18;;;54.83;;
36411;SDS011;22445;52.100;5.176;2022-08-19T06:07:09;169.13;;;63.53;;
36411;SDS011;22445;52.100;5.176;2022-08-19T06:28:22;100.30;;;46.17;;
36411;SDS011;22445;52.100;5.176;2022-08-19T07:29:29;48.17;;;34.22;;
36411;SDS011;22445;52.100;5.176;2022-08-19T07:34:33;45.78;;;31.27;;
36411;SDS011;22445;52.100;5.176;2022-08-19T07:37:04;45.67;;;33.45;;
36411;SDS011;22445;52.100;5.176;2022-08-19T07:46:59;36.70;;;28.50;;
36411;SDS011;22445;52.100;5.176;2022-08-19T07:52:04;38.63;;;28.08;;
36411;SDS011;22445;52.100;5.176;2022-08-19T07:54:32;36.65;;;29.55;;
36411;SDS011;22445;52.100;5.176;2022-08-19T07:56:59;34.60;;;29.05;;
36411;SDS011;22445;52.100;5.176;2022-08-19T07:59:25;37.50;;;29.02;;
36411;SDS011;22445;52.100;5.176;2022-08-19T08:01:51;38.40;;;31.00;;
36411;SDS011;22445;52.100;5.176;2022-08-19T08:04:18;36.53;;;29.73;;
36411;SDS011;22445;52.100;5.176;2022-08-19T08:07:03;41.53;;;29.15;;
36411;SDS011;22445;52.100;5.176;2022-08-19T08:09:51;32.65;;;27.92;;
36411;SDS011;22445;52.100;5.176;2022-08-19T08:14:46;36.15;;;29.17;;
36411;SDS011;22445;52.100;5.176;2022-08-19T08:17:16;36.42;;;29.85;;
36411;SDS011;22445;52.100;5.176;2022-08-19T08:19:43;39.25;;;30.35;;
36411;SDS011;22445;52.100;5.176;2022-08-19T08:27:21;35.78;;;27.60;;
36411;SDS011;22445;52.100;5.176;2022-08-19T08:29:46;32.78;;;27.48;;
36411;SDS011;22445;52.100;5.176;2022-08-19T08:32:13;32.85;;;26.10;;
36411;SDS011;22445;52.100;5.176;2022-08-19T08:34:41;31.48;;;27.23;;
36411;SDS011;22445;52.100;5.176;2022-08-19T08:37:08;34.20;;;27.45;;
36411;SDS011;22445;52.100;5.176;2022-08-19T08:39:34;35.58;;;28.63;;
36411;SDS011;22445;52.100;5.176;2022-08-19T08:44:59;33.03;;;27.23;;
36411;SDS011;22445;52.100;5.176;2022-08-19T08:47:30;27.00;;;22.75;;
36411;SDS011;22445;52.100;5.176;2022-08-19T08:50:01;28.27;;;23.60;;
36411;SDS011;22445;52.100;5.176;2022-08-19T08:52:31;25.30;;;22.67;;
36411;SDS011;22445;52.100;5.176;2022-08-19T08:55:10;23.80;;;20.35;;
36411;SDS011;22445;52.100;5.176;2022-08-19T08:58:01;24.23;;;19.23;;
36411;SDS011;22445;52.100;5.176;2022-08-19T09:00:39;23.00;;;20.30;;
36411;SDS011;22445;52.100;5.176;2022-08-19T09:03:12;23.52;;;19.60;;
36411;SDS011;22445;52.100;5.176;2022-08-19T09:09:00;20.50;;;18.38;;
36411;SDS011;22445;52.100;5.176;2022-08-19T09:11:07;20.90;;;18.65;;
36411;SDS011;22445;52.100;5.176;2022-08-19T09:13:43;21.38;;;18.88;;
36411;SDS011;22445;52.100;5.176;2022-08-19T09:16:20;20.83;;;17.20;;
36411;SDS011;22445;52.100;5.176;2022-08-19T09:18:48;21.17;;;18.95;;
36411;SDS011;22445;52.100;5.176;2022-08-19T09:21:20;22.20;;;19.80;;
36411;SDS011;22445;52.100;5.176;2022-08-19T09:23:49;20.52;;;17.25;;
36411;SDS011;22445;52.100;5.176;2022-08-19T09:26:16;20.80;;;18.02;;
36411;SDS011;22445;52.100;5.176;2022-08-19T09:28:44;23.30;;;19.80;;
36411;SDS011;22445;52.100;5.176;2022-08-19T09:31:22;22.85;;;20.45;;
36411;SDS011;22445;52.100;5.176;2022-08-19T09:33:51;27.60;;;21.55;;
36411;SDS011;22445;52.100;5.176;2022-08-19T09:36:18;21.77;;;19.42;;
36411;SDS011;22445;52.100;5.176;2022-08-19T09:38:45;17.33;;;15.52;;
36411;SDS011;22445;52.100;5.176;2022-08-19T09:41:14;19.45;;;17.35;;
36411;SDS011;22445;52.100;5.176;2022-08-19T09:43:44;22.65;;;18.77;;
36411;SDS011;22445;52.100;5.176;2022-08-19T09:46:11;23.80;;;21.30;;
36411;SDS011;22445;52.100;5.176;2022-08-19T09:48:39;25.05;;;22.48;;
36411;SDS011;22445;52.100;5.176;2022-08-19T09:51:08;25.90;;;23.15;;
36411;SDS011;22445;52.100;5.176;2022-08-19T09:53:37;23.17;;;20.77;;
36411;SDS011;22445;52.100;5.176;2022-08-19T09:56:04;24.00;;;20.98;;
36411;SDS011;22445;52.100;5.176;2022-08-19T09:58:31;20.67;;;18.58;;
36411;SDS011;22445;52.100;5.176;2022-08-19T10:00:59;23.27;;;20.88;;
36411;SDS011;22445;52.100;5.176;2022-08-19T10:03:28;23.98;;;21.05;;
36411;SDS011;22445;52.100;5.176;2022-08-19T10:05:55;22.45;;;20.23;;
36411;SDS011;22445;52.100;5.176;2022-08-19T10:08:23;23.95;;;21.50;;
36411;SDS011;22445;52.100;5.176;2022-08-19T10:11:01;26.35;;;23.55;;
36411;SDS011;22445;52.100;5.176;2022-08-19T10:13:28;27.20;;;24.30;;
36411;SDS011;22445;52.100;5.176;2022-08-19T10:16:01;25.13;;;22.45;;
36411;SDS011;22445;52.100;5.176;2022-08-19T10:21:15;27.02;;;23.10;;
36411;SDS011;22445;52.100;5.176;2022-08-19T10:23:45;28.42;;;25.38;;
36411;SDS011;22445;52.100;5.176;2022-08-19T10:26:14;29.63;;;26.27;;
36411;SDS011;22445;52.100;5.176;2022-08-19T10:28:43;26.95;;;23.13;;
36411;SDS011;22445;52.100;5.176;2022-08-19T10:31:10;27.08;;;24.13;;
36411;SDS011;22445;52.100;5.176;2022-08-19T10:33:38;24.48;;;21.92;;
36411;SDS011;22445;52.100;5.176;2022-08-19T10:36:08;24.52;;;21.80;;
36411;SDS011;22445;52.100;5.176;2022-08-19T10:38:37;20.05;;;17.98;;
36411;SDS011;22445;52.100;5.176;2022-08-19T10:41:10;25.92;;;20.45;;
36411;SDS011;22445;52.100;5.176;2022-08-19T10:43:38;24.55;;;22.00;;
36411;SDS011;22445;52.100;5.176;2022-08-19T10:46:08;25.38;;;22.75;;
36411;SDS011;22445;52.100;5.176;2022-08-19T10:48:36;22.88;;;19.88;;
36411;SDS011;22445;52.100;5.176;2022-08-19T10:51:02;21.20;;;19.10;;
36411;SDS011;22445;52.100;5.176;2022-08-19T10:53:48;26.48;;;23.65;;
36411;SDS011;22445;52.100;5.176;2022-08-19T10:56:15;27.83;;;24.83;;
36411;SDS011;22445;52.100;5.176;2022-08-19T10:58:59;25.73;;;21.00;;
36411;SDS011;22445;52.100;5.176;2022-08-19T11:01:25;31.25;;;23.83;;
36411;SDS011;22445;52.100;5.176;2022-08-19T11:03:53;28.70;;;23.90;;
36411;SDS011;22445;52.100;5.176;2022-08-19T11:06:20;25.30;;;22.60;;
36411;SDS011;22445;52.100;5.176;2022-08-19T11:08:45;25.83;;;22.17;;
36411;SDS011;22445;52.100;5.176;2022-08-19T11:11:12;21.85;;;19.55;;
36411;SDS011;22445;52.100;5.176;2022-08-19T11:13:39;23.05;;;20.63;;
36411;SDS011;22445;52.100;5.176;2022-08-19T11:16:07;24.63;;;22.13;;
36411;SDS011;22445;52.100;5.176;2022-08-19T11:18:41;23.85;;;21.38;;
36411;SDS011;22445;52.100;5.176;2022-08-19T11:21:16;28.63;;;22.55;;
36411;SDS011;22445;52.100;5.176;2022-08-19T11:23:48;22.30;;;19.90;;
36411;SDS011;22445;52.100;5.176;2022-08-19T11:26:15;26.45;;;23.42;;
36411;SDS011;22445;52.100;5.176;2022-08-19T11:28:43;23.55;;;21.02;;
36411;SDS011;22445;52.100;5.176;2022-08-19T11:31:28;26.52;;;23.80;;
36411;SDS011;22445;52.100;5.176;2022-08-19T11:34:00;24.52;;;21.92;;
36411;SDS011;22445;52.100;5.176;2022-08-19T11:36:30;26.65;;;23.85;;
36411;SDS011;22445;52.100;5.176;2022-08-19T11:38:59;23.27;;;19.35;;
36411;SDS011;22445;52.100;5.176;2022-08-19T11:41:25;30.80;;;24.00;;
36411;SDS011;22445;52.100;5.176;2022-08-19T11:46:27;24.48;;;21.98;;
36411;SDS011;22445;52.100;5.176;2022-08-19T11:48:54;26.08;;;23.38;;
36411;SDS011;22445;52.100;5.176;2022-08-19T11:53:57;26.45;;;23.88;;
36411;SDS011;22445;52.100;5.176;2022-08-19T11:56:25;25.33;;;22.55;;
36411;SDS011;22445;52.100;5.176;2022-08-19T11:58:51;22.52;;;19.25;;
36411;SDS011;22445;52.100;5.176;2022-08-19T12:01:18;26.17;;;21.70;;
36411;SDS011;22445;52.100;5.176;2022-08-19T12:03:47;27.30;;;21.38;;
36411;SDS011;22445;52.100;5.176;2022-08-19T12:06:18;24.65;;;22.27;;
36411;SDS011;22445;52.100;5.176;2022-08-19T12:08:57;23.23;;;20.38;;
36411;SDS011;22445;52.100;5.176;2022-08-19T12:11:24;23.23;;;19.52;;
36411;SDS011;22445;52.100;5.176;2022-08-19T12:13:51;18.75;;;16.75;;
36411;SDS011;22445;52.100;5.176;2022-08-19T12:16:23;19.95;;;17.00;;
36411;SDS011;22445;52.100;5.176;2022-08-19T12:18:51;19.88;;;14.52;;
36411;SDS011;22445;52.100;5.176;2022-08-19T12:21:21;15.10;;;11.35;;
36411;SDS011;22445;52.100;5.176;2022-08-19T12:23:53;10.57;;;8.77;;
36411;SDS011;22445;52.100;5.176;2022-08-19T12:26:19;9.70;;;7.88;;
36411;SDS011;22445;52.100;5.176;2022-08-19T12:28:46;10.30;;;7.70;;
36411;SDS011;22445;52.100;5.176;2022-08-19T12:33:41;9.00;;;5.65;;
36411;SDS011;22445;52.100;5.176;2022-08-19T12:36:08;11.20;;;7.18;;
36411;SDS011;22445;52.100;5.176;2022-08-19T12:38:36;9.30;;;6.90;;
36411;SDS011;22445;52.100;5.176;2022-08-19T12:43:38;5.95;;;4.60;;
36411;SDS011;22445;52.100;5.176;2022-08-19T12:46:04;6.15;;;4.78;;
36411;SDS011;22445;52.100;5.176;2022-08-19T12:48:32;6.15;;;4.32;;
36411;SDS011;22445;52.100;5.176;2022-08-19T12:51:00;3.80;;;2.95;;
36411;SDS011;22445;52.100;5.176;2022-08-19T12:53:31;3.53;;;2.38;;
36411;SDS011;22445;52.100;5.176;2022-08-19T12:55:58;6.22;;;5.63;;
36411;SDS011;22445;52.100;5.176;2022-08-19T12:58:26;4.93;;;4.18;;
36411;SDS011;22445;52.100;5.176;2022-08-19T13:00:53;4.82;;;3.85;;
36411;SDS011;22445;52.100;5.176;2022-08-19T13:06:08;4.32;;;3.70;;
36411;SDS011;22445;52.100;5.176;2022-08-19T13:08:36;7.85;;;6.80;;
36411;SDS011;22445;52.100;5.176;2022-08-19T13:11:11;5.80;;;5.30;;
36411;SDS011;22445;52.100;5.176;2022-08-19T13:13:40;10.98;;;6.72;;
36411;SDS011;22445;52.100;5.176;2022-08-19T13:16:07;6.43;;;5.10;;
36411;SDS011;22445;52.100;5.176;2022-08-19T13:21:10;5.85;;;5.18;;
36411;SDS011;22445;52.100;5.176;2022-08-19T13:23:40;4.20;;;3.45;;
36411;SDS011;22445;52.100;5.176;2022-08-19T13:28:34;4.90;;;4.40;;
36411;SDS011;22445;52.100;5.176;2022-08-19T13:31:19;5.68;;;4.20;;
36411;SDS011;22445;52.100;5.176;2022-08-19T13:34:04;6.22;;;4.35;;
36411;SDS011;22445;52.100;5.176;2022-08-19T13:36:32;8.18;;;4.93;;
36411;SDS011;22445;52.100;5.176;2022-08-19T13:38:59;6.43;;;5.00;;
36411;SDS011;22445;52.100;5.176;2022-08-19T13:41:26;5.80;;;4.72;;
36411;SDS011;22445;52.100;5.176;2022-08-19T13:46:28;7.85;;;4.20;;
36411;SDS011;22445;52.100;5.176;2022-08-19T13:48:55;6.65;;;4.13;;
36411;SDS011;22445;52.100;5.176;2022-08-19T13:54:22;5.93;;;4.80;;
36411;SDS011;22445;52.100;5.176;2022-08-19T13:56:49;7.55;;;4.68;;
36411;SDS011;22445;52.100;5.176;2022-08-19T13:59:16;5.70;;;5.10;;
36411;SDS011;22445;52.100;5.176;2022-08-19T14:01:42;9.00;;;5.63;;
36411;SDS011;22445;52.100;5.176;2022-08-19T14:04:08;9.55;;;6.43;;
36411;SDS011;22445;52.100;5.176;2022-08-19T14:09:10;6.40;;;5.32;;
36411;SDS011;22445;52.100;5.176;2022-08-19T14:11:35;6.88;;;5.72;;
36411;SDS011;22445;52.100;5.176;2022-08-19T14:16:39;6.65;;;5.78;;
36411;SDS011;22445;52.100;5.176;2022-08-19T14:19:05;5.78;;;4.85;;
36411;SDS011;22445;52.100;5.176;2022-08-19T14:21:33;5.00;;;4.10;;
36411;SDS011;22445;52.100;5.176;2022-08-19T14:26:37;5.65;;;5.20;;
36411;SDS011;22445;52.100;5.176;2022-08-19T14:29:03;4.38;;;4.07;;
36411;SDS011;22445;52.100;5.176;2022-08-19T14:31:29;6.22;;;4.57;;
36411;SDS011;22445;52.100;5.176;2022-08-19T14:33:56;6.45;;;4.70;;
36411;SDS011;22445;52.100;5.176;2022-08-19T14:36:23;5.97;;;4.28;;
36411;SDS011;22445;52.100;5.176;2022-08-19T14:38:48;4.88;;;3.63;;
36411;SDS011;22445;52.100;5.176;2022-08-19T14:43:57;3.65;;;2.10;;
36411;SDS011;22445;52.100;5.176;2022-08-19T14:46:26;2.65;;;2.20;;
36411;SDS011;22445;52.100;5.176;2022-08-19T14:48:53;2.55;;;1.88;;
36411;SDS011;22445;52.100;5.176;2022-08-19T14:54:01;2.72;;;2.17;;
36411;SDS011;22445;52.100;5.176;2022-08-19T14:56:28;3.50;;;1.52;;
36411;SDS011;22445;52.100;5.176;2022-08-19T14:58:56;4.20;;;1.63;;
36411;SDS011;22445;52.100;5.176;2022-08-19T15:01:25;2.10;;;1.38;;
36411;SDS011;22445;52.100;5.176;2022-08-19T15:03:52;1.38;;;1.27;;
36411;SDS011;22445;52.100;5.176;2022-08-19T15:06:20;4.43;;;1.30;;
36411;SDS011;22445;52.100;5.176;2022-08-19T15:08:47;2.55;;;1.13;;
36411;SDS011;22445;52.100;5.176;2022-08-19T15:13:48;1.73;;;1.63;;
36411;SDS011;22445;52.100;5.176;2022-08-19T15:16:14;2.25;;;2.00;;
36411;SDS011;22445;52.100;5.176;2022-08-19T15:21:17;2.30;;;2.10;;
36411;SDS011;22445;52.100;5.176;2022-08-19T15:23:44;4.35;;;2.72;;
36411;SDS011;22445;52.100;5.176;2022-08-19T15:26:10;3.33;;;3.03;;
36411;SDS011;22445;52.100;5.176;2022-08-19T15:28:36;3.10;;;2.80;;
36411;SDS011;22445;52.100;5.176;2022-08-19T15:31:02;3.75;;;3.20;;
36411;SDS011;22445;52.100;5.176;2022-08-19T15:33:30;3.28;;;2.50;;
36411;SDS011;22445;52.100;5.176;2022-08-19T15:35:56;2.75;;;2.55;;
36411;SDS011;22445;52.100;5.176;2022-08-19T15:40:59;4.57;;;4.07;;
36411;SDS011;22445;52.100;5.176;2022-08-19T15:46:22;2.63;;;2.35;;
36411;SDS011;22445;52.100;5.176;2022-08-19T15:51:27;4.50;;;2.90;;
36411;SDS011;22445;52.100;5.176;2022-08-19T15:53:56;4.50;;;4.10;;
36411;SDS011;22445;52.100;5.176;2022-08-19T15:56:23;4.78;;;3.55;;
36411;SDS011;22445;52.100;5.176;2022-08-19T15:58:49;4.40;;;4.00;;
36411;SDS011;22445;52.100;5.176;2022-08-19T16:04:22;3.47;;;3.17;;
36411;SDS011;22445;52.100;5.176;2022-08-19T16:07:16;4.75;;;3.30;;
36411;SDS011;22445;52.100;5.176;2022-08-19T16:09:41;4.93;;;3.63;;
36411;SDS011;22445;52.100;5.176;2022-08-19T16:12:07;4.03;;;3.53;;
36411;SDS011;22445;52.100;5.176;2022-08-19T16:14:36;4.03;;;3.50;;
36411;SDS011;22445;52.100;5.176;2022-08-19T16:17:02;2.70;;;2.50;;
36411;SDS011;22445;52.100;5.176;2022-08-19T16:21:57;4.90;;;2.45;;
36411;SDS011;22445;52.100;5.176;2022-08-19T16:24:23;3.83;;;2.10;;
36411;SDS011;22445;52.100;5.176;2022-08-19T16:26:52;2.45;;;2.13;;
36411;SDS011;22445;52.100;5.176;2022-08-19T16:29:20;4.43;;;2.70;;
36411;SDS011;22445;52.100;5.176;2022-08-19T16:31:47;2.63;;;2.30;;
36411;SDS011;22445;52.100;5.176;2022-08-19T16:34:14;2.90;;;2.70;;
36411;SDS011;22445;52.100;5.176;2022-08-19T16:36:41;4.95;;;2.80;;
36411;SDS011;22445;52.100;5.176;2022-08-19T16:39:10;4.05;;;2.42;;
36411;SDS011;22445;52.100;5.176;2022-08-19T16:41:36;2.08;;;1.75;;
36411;SDS011;22445;52.100;5.176;2022-08-19T16:44:03;3.92;;;2.88;;
36411;SDS011;22445;52.100;5.176;2022-08-19T16:51:51;4.95;;;2.45;;
36411;SDS011;22445;52.100;5.176;2022-08-19T16:56:45;6.30;;;3.97;;
36411;SDS011;22445;52.100;5.176;2022-08-19T16:59:15;6.20;;;3.70;;
36411;SDS011;22445;52.100;5.176;2022-08-19T17:01:42;4.03;;;3.60;;
36411;SDS011;22445;52.100;5.176;2022-08-19T17:06:36;4.97;;;3.42;;
36411;SDS011;22445;52.100;5.176;2022-08-19T17:09:05;4.35;;;3.30;;
36411;SDS011;22445;52.100;5.176;2022-08-19T17:11:32;4.25;;;3.53;;
36411;SDS011;22445;52.100;5.176;2022-08-19T17:16:40;4.53;;;3.20;;
36411;SDS011;22445;52.100;5.176;2022-08-19T17:19:07;5.13;;;2.92;;
36411;SDS011;22445;52.100;5.176;2022-08-19T17:21:34;6.03;;;3.53;;
36411;SDS011;22445;52.100;5.176;2022-08-19T17:29:11;3.35;;;2.25;;
36411;SDS011;22445;52.100;5.176;2022-08-19T17:31:39;5.35;;;2.40;;
36411;SDS011;22445;52.100;5.176;2022-08-19T17:34:06;4.88;;;2.00;;
36411;SDS011;22445;52.100;5.176;2022-08-19T17:36:34;2.30;;;1.50;;
36411;SDS011;22445;52.100;5.176;2022-08-19T17:39:02;4.57;;;2.13;;
36411;SDS011;22445;52.100;5.176;2022-08-19T17:41:29;2.17;;;1.60;;
36411;SDS011;22445;52.100;5.176;2022-08-19T17:46:38;2.63;;;1.55;;
36411;SDS011;22445;52.100;5.176;2022-08-19T17:49:04;1.75;;;1.30;;
36411;SDS011;22445;52.100;5.176;2022-08-19T17:54:06;2.35;;;1.30;;
36411;SDS011;22445;52.100;5.176;2022-08-19T17:56:34;2.75;;;1.27;;
36411;SDS011;22445;52.100;5.176;2022-08-19T17:58:59;1.40;;;1.10;;
36411;SDS011;22445;52.100;5.176;2022-08-19T18:01:25;2.70;;;1.10;;
36411;SDS011;22445;52.100;5.176;2022-08-19T18:03:52;2.72;;;1.17;;
36411;SDS011;22445;52.100;5.176;2022-08-19T18:06:18;1.70;;;1.10;;
36411;SDS011;22445;52.100;5.176;2022-08-19T18:08:44;1.80;;;1.10;;
36411;SDS011;22445;52.100;5.176;2022-08-19T18:11:10;1.60;;;1.10;;
36411;SDS011;22445;52.100;5.176;2022-08-19T18:13:37;3.33;;;1.30;;
36411;SDS011;22445;52.100;5.176;2022-08-19T18:16:05;2.45;;;1.02;;
36411;SDS011;22445;52.100;5.176;2022-08-19T18:18:38;3.75;;;1.40;;
36411;SDS011;22445;52.100;5.176;2022-08-19T18:21:04;1.55;;;1.17;;
36411;SDS011;22445;52.100;5.176;2022-08-19T18:23:30;1.90;;;1.25;;
36411;SDS011;22445;52.100;5.176;2022-08-19T18:25:56;2.10;;;1.30;;
36411;SDS011;22445;52.100;5.176;2022-08-19T18:28:23;1.10;;;1.00;;
36411;SDS011;22445;52.100;5.176;2022-08-19T18:30:50;2.17;;;1.38;;
36411;SDS011;22445;52.100;5.176;2022-08-19T18:33:15;2.42;;;1.58;;
36411;SDS011;22445;52.100;5.176;2022-08-19T18:35:43;2.83;;;1.60;;
36411;SDS011;22445;52.100;5.176;2022-08-19T18:38:12;4.65;;;1.40;;
36411;SDS011;22445;52.100;5.176;2022-08-19T18:40:59;2.15;;;1.30;;
36411;SDS011;22445;52.100;5.176;2022-08-19T18:43:44;3.80;;;1.08;;
36411;SDS011;22445;52.100;5.176;2022-08-19T18:46:30;1.90;;;1.25;;
36411;SDS011;22445;52.100;5.176;2022-08-19T18:49:19;1.65;;;1.55;;
36411;SDS011;22445;52.100;5.176;2022-08-19T18:51:48;1.20;;;1.10;;
36411;SDS011;22445;52.100;5.176;2022-08-19T18:54:17;2.10;;;1.27;;
36411;SDS011;22445;52.100;5.176;2022-08-19T18:56:44;1.60;;;1.10;;
36411;SDS011;22445;52.100;5.176;2022-08-19T18:59:11;1.95;;;1.30;;
36411;SDS011;22445;52.100;5.176;2022-08-19T19:01:41;1.65;;;1.35;;
36411;SDS011;22445;52.100;5.176;2022-08-19T19:04:17;1.73;;;1.38;;
36411;SDS011;22445;52.100;5.176;2022-08-19T19:06:44;2.05;;;1.23;;
36411;SDS011;22445;52.100;5.176;2022-08-19T19:09:18;3.67;;;1.30;;
36411;SDS011;22445;52.100;5.176;2022-08-19T19:11:57;1.98;;;1.48;;
36411;SDS011;22445;52.100;5.176;2022-08-19T19:14:28;3.85;;;1.80;;
36411;SDS011;22445;52.100;5.176;2022-08-19T19:17:00;3.60;;;1.48;;
36411;SDS011;22445;52.100;5.176;2022-08-19T19:19:28;2.38;;;1.85;;
36411;SDS011;22445;52.100;5.176;2022-08-19T19:24:48;3.25;;;2.40;;
36411;SDS011;22445;52.100;5.176;2022-08-19T19:27:16;2.65;;;1.77;;
36411;SDS011;22445;52.100;5.176;2022-08-19T19:29:44;2.78;;;2.05;;
36411;SDS011;22445;52.100;5.176;2022-08-19T19:32:17;2.33;;;2.13;;
36411;SDS011;22445;52.100;5.176;2022-08-19T19:34:49;4.10;;;2.90;;
36411;SDS011;22445;52.100;5.176;2022-08-19T19:37:15;2.78;;;2.58;;
36411;SDS011;22445;52.100;5.176;2022-08-19T19:39:41;3.35;;;3.00;;
36411;SDS011;22445;52.100;5.176;2022-08-19T19:42:07;2.92;;;2.20;;
36411;SDS011;22445;52.100;5.176;2022-08-19T19:44:41;3.55;;;3.22;;
36411;SDS011;22445;52.100;5.176;2022-08-19T19:47:08;3.78;;;2.45;;
36411;SDS011;22445;52.100;5.176;2022-08-19T19:52:09;4.15;;;2.60;;
36411;SDS011;22445;52.100;5.176;2022-08-19T19:54:35;4.15;;;2.47;;
36411;SDS011;22445;52.100;5.176;2022-08-19T19:57:03;4.70;;;2.63;;
36411;SDS011;22445;52.100;5.176;2022-08-19T20:01:57;4.40;;;3.10;;
36411;SDS011;22445;52.100;5.176;2022-08-19T20:04:24;6.75;;;5.85;;
36411;SDS011;22445;52.100;5.176;2022-08-19T20:06:52;4.72;;;4.22;;
36411;SDS011;22445;52.100;5.176;2022-08-19T20:11:54;4.45;;;3.47;;
36411;SDS011;22445;52.100;5.176;2022-08-19T20:22:02;4.18;;;2.88;;
36411;SDS011;22445;52.100;5.176;2022-08-19T20:24:30;5.20;;;4.32;;
36411;SDS011;22445;52.100;5.176;2022-08-19T20:29:32;7.43;;;4.88;;
36411;SDS011;22445;52.100;5.176;2022-08-19T20:31:58;6.47;;;4.70;;
36411;SDS011;22445;52.100;5.176;2022-08-19T20:34:23;6.38;;;5.50;;
36411;SDS011;22445;52.100;5.176;2022-08-19T20:39:17;7.25;;;5.57;;
36411;SDS011;22445;52.100;5.176;2022-08-19T20:41:43;7.93;;;6.03;;
36411;SDS011;22445;52.100;5.176;2022-08-19T20:49:17;5.55;;;4.53;;
36411;SDS011;22445;52.100;5.176;2022-08-19T20:51:42;8.88;;;5.88;;
36411;SDS011;22445;52.100;5.176;2022-08-19T20:54:11;6.65;;;4.22;;
36411;SDS011;22445;52.100;5.176;2022-08-19T21:02:01;7.57;;;5.60;;
36411;SDS011;22445;52.100;5.176;2022-08-19T21:04:28;6.15;;;4.68;;
36411;SDS011;22445;52.100;5.176;2022-08-19T21:06:54;5.80;;;5.20;;
36411;SDS011;22445;52.100;5.176;2022-08-19T21:09:20;6.70;;;5.80;;
36411;SDS011;22445;52.100;5.176;2022-08-19T21:11:46;7.32;;;6.57;;
36411;SDS011;22445;52.100;5.176;2022-08-19T21:14:13;7.13;;;5.72;;
36411;SDS011;22445;52.100;5.176;2022-08-19T21:16:40;6.47;;;5.43;;
36411;SDS011;22445;52.100;5.176;2022-08-19T21:19:06;6.97;;;5.22;;
36411;SDS011;22445;52.100;5.176;2022-08-19T21:21:31;6.53;;;4.80;;
36411;SDS011;22445;52.100;5.176;2022-08-19T21:23:58;9.10;;;4.45;;
36411;SDS011;22445;52.100;5.176;2022-08-19T21:26:24;7.10;;;5.22;;
36411;SDS011;22445;52.100;5.176;2022-08-19T21:28:49;9.20;;;6.22;;
36411;SDS011;22445;52.100;5.176;2022-08-19T21:31:16;7.28;;;4.85;;
36411;SDS011;22445;52.100;5.176;2022-08-19T21:33:42;6.88;;;4.35;;
36411;SDS011;22445;52.100;5.176;2022-08-19T21:36:08;6.00;;;4.93;;
36411;SDS011;22445;52.100;5.176;2022-08-19T21:43:45;7.47;;;4.85;;
36411;SDS011;22445;52.100;5.176;2022-08-19T21:46:10;6.22;;;4.40;;
36411;SDS011;22445;52.100;5.176;2022-08-19T21:48:37;7.68;;;6.50;;
36411;SDS011;22445;52.100;5.176;2022-08-19T21:51:04;5.18;;;3.70;;
36411;SDS011;22445;52.100;5.176;2022-08-19T21:53:29;7.07;;;4.13;;
36411;SDS011;22445;52.100;5.176;2022-08-19T22:01:07;4.25;;;3.78;;
36411;SDS011;22445;52.100;5.176;2022-08-19T22:03:35;3.97;;;3.58;;
36411;SDS011;22445;52.100;5.176;2022-08-19T22:06:01;4.22;;;3.63;;
36411;SDS011;22445;52.100;5.176;2022-08-19T22:08:26;6.00;;;4.30;;
36411;SDS011;22445;52.100;5.176;2022-08-19T22:10:52;5.28;;;4.57;;
36411;SDS011;22445;52.100;5.176;2022-08-19T22:13:19;5.57;;;4.35;;
36411;SDS011;22445;52.100;5.176;2022-08-19T22:15:47;6.30;;;4.43;;
36411;SDS011;22445;52.100;5.176;2022-08-19T22:18:14;6.65;;;4.15;;
36411;SDS011;22445;52.100;5.176;2022-08-19T22:20:42;7.20;;;3.95;;
36411;SDS011;22445;52.100;5.176;2022-08-19T22:28:43;7.07;;;4.43;;
36411;SDS011;22445;52.100;5.176;2022-08-19T22:31:10;6.57;;;4.65;;
36411;SDS011;22445;52.100;5.176;2022-08-19T22:33:35;5.78;;;4.50;;
36411;SDS011;22445;52.100;5.176;2022-08-19T22:36:02;8.32;;;4.60;;
36411;SDS011;22445;52.100;5.176;2022-08-19T22:41:10;5.85;;;4.30;;
36411;SDS011;22445;52.100;5.176;2022-08-19T22:43:36;6.13;;;3.90;;
36411;SDS011;22445;52.100;5.176;2022-08-19T22:46:03;5.82;;;3.78;;
36411;SDS011;22445;52.100;5.176;2022-08-19T22:51:05;5.82;;;3.53;;
36411;SDS011;22445;52.100;5.176;2022-08-19T22:53:50;5.95;;;4.32;;
36411;SDS011;22445;52.100;5.176;2022-08-19T22:56:16;8.35;;;3.80;;
36411;SDS011;22445;52.100;5.176;2022-08-19T22:58:43;6.63;;;3.78;;
36411;SDS011;22445;52.100;5.176;2022-08-19T23:01:11;6.78;;;3.35;;
36411;SDS011;22445;52.100;5.176;2022-08-19T23:03:38;4.88;;;2.92;;